Time;durP1;ratioP1;P1;durP2;ratioP2;P2;SDS_P1;SDS_P2;PMS_P1;PMS_P2;Temp;Humidity;BMP_temperature;BMP_pressure;BME280_temperature;BME280_humidity;BME280_pressure;Samples;Min_cycle;Max_cycle;Signal;HPM_P1;HPM_P2
2020/12/07 00:00:33;;;;;;;57.13;38.00;;;5.60;99.90;;;;;;5024703;28;20474;-56
2020/12/07 00:03:01;;;;;;;53.87;36.63;;;5.40;99.90;;;;;;5028239;28;20475;-54
2020/12/07 00:05:29;;;;;;;54.67;38.07;;;5.30;99.90;;;;;;5026268;28;20482;-55
2020/12/07 00:08:00;;;;;;;51.40;35.63;;;5.20;99.90;;;;;;5028650;28;20486;-54
2020/12/07 00:10:28;;;;;;;56.40;38.13;;;5.20;99.90;;;;;;5027563;28;20244;-54
2020/12/07 00:12:55;;;;;;;58.97;39.83;;;5.40;99.90;;;;;;5028478;28;20982;-54
2020/12/07 00:15:22;;;;;;;53.63;36.83;;;5.50;99.90;;;;;;5028357;28;20326;-55
2020/12/07 00:17:52;;;;;;;55.07;37.23;;;5.40;99.90;;;;;;5028618;28;20536;-54
2020/12/07 00:20:19;;;;;;;55.53;38.13;;;5.50;99.90;;;;;;5027750;28;21067;-54
2020/12/07 00:22:46;;;;;;;61.80;39.30;;;5.90;99.90;;;;;;5028569;28;20486;-54
2020/12/07 00:25:15;;;;;;;67.13;43.67;;;6.10;99.90;;;;;;5028045;28;20478;-54
2020/12/07 00:27:42;;;;;;;59.40;37.63;;;6.20;99.90;;;;;;5027262;28;20256;-55
2020/12/07 00:30:09;;;;;;;67.80;41.30;;;6.00;99.90;;;;;;5038105;28;20231;-55
2020/12/07 00:32:36;;;;;;;71.37;42.03;;;6.10;99.90;;;;;;5046369;28;20502;-54
2020/12/07 00:35:04;;;;;;;69.90;40.73;;;6.20;99.90;;;;;;5046408;28;20478;-54
2020/12/07 00:37:32;;;;;;;66.83;42.17;;;6.00;99.90;;;;;;5046269;28;20251;-54
2020/12/07 00:39:59;;;;;;;71.93;42.90;;;5.90;99.90;;;;;;5046095;28;20535;-54
2020/12/07 00:42:27;;;;;;;73.73;45.30;;;6.20;99.90;;;;;;5045556;28;20669;-54
2020/12/07 00:44:55;;;;;;;72.73;45.37;;;6.20;99.90;;;;;;5047032;28;20298;-54
2020/12/07 00:47:22;;;;;;;78.40;42.60;;;6.20;99.90;;;;;;5050395;28;20269;-54
2020/12/07 00:49:49;;;;;;;65.07;42.47;;;6.10;99.90;;;;;;5050571;28;20316;-54
2020/12/07 00:52:17;;;;;;;64.73;40.87;;;5.90;99.90;;;;;;5051791;28;20469;-55
2020/12/07 00:54:45;;;;;;;67.87;39.53;;;6.10;99.90;;;;;;5045739;28;20305;-55
2020/12/07 00:57:13;;;;;;;68.80;43.03;;;6.00;99.90;;;;;;5038103;28;20729;-54
2020/12/07 00:59:42;;;;;;;69.13;43.90;;;5.80;99.90;;;;;;5036846;28;20236;-54
2020/12/07 01:02:10;;;;;;;68.50;40.33;;;5.90;99.90;;;;;;5047715;28;20737;-55
2020/12/07 01:04:38;;;;;;;59.17;40.20;;;5.90;99.90;;;;;;5053491;28;20481;-54
2020/12/07 01:07:08;;;;;;;57.90;38.77;;;5.60;99.90;;;;;;5050118;28;20315;-54
2020/12/07 01:09:36;;;;;;;52.87;34.50;;;5.40;99.90;;;;;;5049486;28;20269;-54
2020/12/07 01:12:05;;;;;;;61.87;40.57;;;5.70;99.90;;;;;;5045953;28;20705;-56
2020/12/07 01:14:39;;;;;;;63.80;40.73;;;5.60;99.90;;;;;;5065957;28;20230;-54
2020/12/07 01:17:09;;;;;;;56.30;38.20;;;5.40;99.90;;;;;;5049681;28;20478;-54
2020/12/07 01:19:37;;;;;;;56.73;37.47;;;5.30;99.90;;;;;;5062098;28;20483;-54
2020/12/07 01:22:05;;;;;;;55.70;37.67;;;5.20;99.90;;;;;;5045041;28;20486;-54
2020/12/07 01:24:34;;;;;;;56.97;37.43;;;5.10;99.90;;;;;;5063998;28;20471;-54
2020/12/07 01:27:03;;;;;;;49.47;35.40;;;5.10;99.90;;;;;;5056337;28;20474;-54
2020/12/07 01:29:30;;;;;;;54.77;37.03;;;5.10;99.90;;;;;;5050820;28;20467;-54
2020/12/07 01:31:58;;;;;;;53.57;36.17;;;5.20;99.90;;;;;;5065246;28;21063;-54
2020/12/07 01:34:26;;;;;;;50.70;34.23;;;5.20;99.90;;;;;;5069722;28;20319;-54
2020/12/07 01:36:54;;;;;;;51.77;34.70;;;5.20;99.90;;;;;;5070647;28;20483;-55
2020/12/07 01:39:21;;;;;;;55.10;32.70;;;5.20;99.90;;;;;;5064460;28;20258;-54
2020/12/07 01:41:49;;;;;;;70.40;39.77;;;5.30;99.90;;;;;;5039163;28;20831;-54
2020/12/07 01:44:20;;;;;;;63.67;39.50;;;5.50;99.90;;;;;;5029049;28;21033;-54
2020/12/07 01:46:47;;;;;;;63.23;38.43;;;5.30;99.90;;;;;;5040879;28;20235;-55
2020/12/07 01:49:15;;;;;;;63.43;39.03;;;5.20;99.90;;;;;;5049031;28;20999;-54
2020/12/07 01:51:43;;;;;;;57.37;36.87;;;5.20;99.90;;;;;;5048586;28;20326;-54
2020/12/07 01:54:13;;;;;;;63.70;38.83;;;5.20;99.90;;;;;;5064881;28;20653;-54
2020/12/07 01:56:46;;;;;;;55.17;34.17;;;5.20;99.90;;;;;;5057772;28;20477;-54
2020/12/07 01:59:16;;;;;;;67.90;40.93;;;5.40;99.90;;;;;;5061594;28;20949;-55
2020/12/07 02:01:44;;;;;;;66.50;39.63;;;5.40;99.90;;;;;;5058471;28;20711;-54
2020/12/07 02:04:13;;;;;;;67.53;38.33;;;5.40;99.90;;;;;;5031577;28;20485;-54
2020/12/07 02:06:41;;;;;;;63.00;39.23;;;5.50;99.90;;;;;;5029710;28;20259;-55
2020/12/07 02:09:11;;;;;;;70.57;37.83;;;5.50;99.90;;;;;;5030761;28;20566;-55
2020/12/07 02:11:49;;;;;;;72.13;42.73;;;5.90;99.90;;;;;;5062377;28;20290;-54
2020/12/07 02:14:17;;;;;;;73.33;40.93;;;5.80;99.90;;;;;;5028910;28;20471;-54
2020/12/07 02:16:45;;;;;;;73.57;43.27;;;6.00;99.90;;;;;;5030044;28;20247;-56
2020/12/07 02:19:14;;;;;;;70.57;39.10;;;5.80;99.90;;;;;;5029328;28;20248;-54
2020/12/07 02:21:47;;;;;;;70.40;42.07;;;5.90;99.90;;;;;;5048450;28;20255;-54
2020/12/07 02:24:42;;;;;;;71.13;41.57;;;6.00;99.90;;;;;;5065533;28;20240;-54
2020/12/07 02:27:22;;;;;;;63.90;39.27;;;6.10;99.90;;;;;;5047847;28;20991;-54
2020/12/07 02:29:49;;;;;;;64.10;37.07;;;6.10;99.90;;;;;;5075379;28;20252;-55
2020/12/07 02:32:17;;;;;;;56.47;35.27;;;5.90;99.90;;;;;;5028247;28;20310;-54
2020/12/07 02:34:50;;;;;;;71.83;39.87;;;5.90;99.90;;;;;;5028187;28;20246;-56
2020/12/07 02:37:23;;;;;;;62.00;37.73;;;6.10;99.90;;;;;;5010623;28;20247;-54
2020/12/07 02:39:53;;;;;;;72.67;42.00;;;6.10;99.90;;;;;;5008444;28;20244;-54
2020/12/07 02:42:22;;;;;;;60.30;35.33;;;6.20;99.90;;;;;;5018061;28;20533;-54
2020/12/07 02:44:49;;;;;;;65.53;36.60;;;5.90;99.90;;;;;;5027693;28;20260;-54
2020/12/07 02:47:20;;;;;;;72.10;41.23;;;6.10;99.90;;;;;;5028251;28;20239;-55
2020/12/07 02:49:47;;;;;;;68.73;41.27;;;6.10;99.90;;;;;;5027795;28;20865;-56
2020/12/07 02:52:17;;;;;;;71.73;38.80;;;6.10;99.90;;;;;;5028410;28;20483;-54
2020/12/07 02:54:45;;;;;;;83.63;45.90;;;6.40;99.90;;;;;;5041648;28;20267;-56
2020/12/07 02:57:23;;;;;;;60.37;38.03;;;6.50;99.90;;;;;;5049554;28;20469;-54
2020/12/07 02:59:51;;;;;;;65.47;38.83;;;6.20;99.90;;;;;;5055070;28;20833;-54
2020/12/07 03:02:19;;;;;;;71.87;40.27;;;6.20;99.90;;;;;;5069154;28;20241;-54
2020/12/07 03:04:50;;;;;;;57.60;36.70;;;6.10;99.90;;;;;;5032853;28;20531;-55
2020/12/07 03:07:18;;;;;;;54.73;33.93;;;5.70;99.90;;;;;;5031426;28;21192;-54
2020/12/07 03:09:52;;;;;;;50.23;33.10;;;5.60;99.90;;;;;;5028081;28;20319;-55
2020/12/07 03:12:21;;;;;;;47.90;32.53;;;5.80;99.90;;;;;;5020754;28;20609;-54
2020/12/07 03:14:49;;;;;;;46.53;30.80;;;5.60;99.90;;;;;;5024598;28;20470;-54
2020/12/07 03:17:17;;;;;;;46.10;30.60;;;5.50;99.90;;;;;;5030833;28;20286;-55
2020/12/07 03:19:46;;;;;;;56.40;32.73;;;5.90;99.90;;;;;;5040670;28;20239;-54
2020/12/07 03:22:13;;;;;;;50.37;33.60;;;6.00;99.90;;;;;;5028225;28;20229;-54
2020/12/07 03:24:40;;;;;;;53.53;32.70;;;5.90;99.90;;;;;;5027598;28;20263;-54
2020/12/07 03:27:10;;;;;;;52.57;34.43;;;6.20;99.90;;;;;;5027858;28;20483;-55
2020/12/07 03:29:37;;;;;;;49.43;30.87;;;6.00;99.90;;;;;;5043792;28;20885;-54
2020/12/07 03:32:05;;;;;;;62.00;36.40;;;6.20;99.90;;;;;;5045283;28;20266;-54
2020/12/07 03:34:34;;;;;;;54.90;34.20;;;6.30;99.90;;;;;;5047227;28;20242;-54
2020/12/07 03:37:02;;;;;;;60.53;35.37;;;6.20;99.90;;;;;;5064354;28;20240;-55
2020/12/07 03:39:49;;;;;;;57.67;34.13;;;6.40;99.90;;;;;;5047364;28;20231;-56
2020/12/07 03:42:18;;;;;;;64.23;36.50;;;6.30;99.90;;;;;;5064240;28;20239;-56
2020/12/07 03:44:46;;;;;;;56.70;34.13;;;6.20;99.90;;;;;;5046982;28;20478;-54
2020/12/07 03:47:16;;;;;;;67.20;38.57;;;6.10;99.90;;;;;;5047419;28;20235;-54
2020/12/07 03:49:47;;;;;;;69.43;36.37;;;6.40;99.90;;;;;;5036968;28;20233;-55
2020/12/07 03:52:17;;;;;;;75.93;40.20;;;6.40;99.90;;;;;;5027677;28;20244;-56
2020/12/07 03:54:45;;;;;;;76.13;41.47;;;6.40;99.90;;;;;;5027094;28;20246;-54
2020/12/07 03:57:13;;;;;;;62.13;38.00;;;6.50;99.90;;;;;;5027350;28;21025;-54
2020/12/07 03:59:42;;;;;;;58.40;36.30;;;6.00;99.90;;;;;;5043723;28;20339;-54
2020/12/07 04:02:10;;;;;;;50.10;33.60;;;5.90;99.90;;;;;;5044444;28;20311;-55
2020/12/07 04:04:42;;;;;;;47.83;29.63;;;5.70;99.90;;;;;;5046424;28;20484;-55
2020/12/07 04:07:10;;;;;;;55.43;34.33;;;5.80;99.90;;;;;;5027963;28;20236;-56
2020/12/07 04:09:37;;;;;;;65.10;37.40;;;6.10;99.90;;;;;;5029209;28;20231;-56
2020/12/07 04:12:04;;;;;;;53.70;34.17;;;5.90;99.90;;;;;;5029317;28;20793;-55
2020/12/07 04:14:32;;;;;;;52.87;34.57;;;5.60;99.90;;;;;;5029076;28;20236;-54
2020/12/07 04:17:00;;;;;;;47.80;32.03;;;5.80;99.90;;;;;;5028538;28;20315;-54
2020/12/07 04:19:27;;;;;;;49.13;33.20;;;5.70;99.90;;;;;;5030175;28;20278;-54
2020/12/07 04:21:55;;;;;;;45.07;30.80;;;5.80;99.90;;;;;;5032485;28;20481;-54
2020/12/07 04:24:22;;;;;;;49.20;32.47;;;5.60;99.90;;;;;;5033313;28;20841;-54
2020/12/07 04:26:49;;;;;;;45.00;31.00;;;5.80;99.90;;;;;;5036555;28;20851;-55
2020/12/07 04:29:16;;;;;;;48.13;31.10;;;5.80;99.90;;;;;;5032709;28;20479;-55
2020/12/07 04:31:44;;;;;;;51.57;34.57;;;5.60;99.90;;;;;;5041612;28;20869;-55
2020/12/07 04:34:12;;;;;;;54.93;35.47;;;5.80;99.90;;;;;;5051840;28;20880;-56
2020/12/07 04:36:39;;;;;;;51.37;34.43;;;5.80;99.90;;;;;;5052260;28;20702;-55
2020/12/07 04:39:06;;;;;;;53.23;33.57;;;5.70;99.90;;;;;;5052379;28;20235;-54
2020/12/07 04:41:34;;;;;;;52.67;35.13;;;5.70;99.90;;;;;;5052300;28;20532;-54
2020/12/07 04:44:01;;;;;;;52.67;34.97;;;5.90;99.90;;;;;;5056208;28;20574;-55
2020/12/07 04:46:30;;;;;;;49.77;33.80;;;5.90;99.90;;;;;;5036251;28;20240;-55
2020/12/07 04:49:01;;;;;;;51.63;34.27;;;5.80;99.90;;;;;;5032111;28;20718;-56
2020/12/07 04:51:30;;;;;;;48.80;34.23;;;5.80;99.90;;;;;;5031767;28;20478;-54
2020/12/07 04:54:00;;;;;;;49.33;33.70;;;5.70;99.90;;;;;;5031774;28;21139;-55
2020/12/07 04:56:28;;;;;;;46.17;31.43;;;5.90;99.90;;;;;;5046175;28;20267;-55
2020/12/07 04:58:56;;;;;;;54.73;36.97;;;6.00;99.90;;;;;;5054328;28;20243;-54
2020/12/07 05:01:24;;;;;;;57.27;37.67;;;6.10;99.90;;;;;;5051551;28;20232;-54
2020/12/07 05:03:51;;;;;;;56.87;37.47;;;5.80;99.90;;;;;;5064442;28;21195;-56
2020/12/07 05:06:20;;;;;;;57.83;34.90;;;5.90;99.90;;;;;;5068997;28;20468;-54
2020/12/07 05:08:48;;;;;;;59.23;38.53;;;5.90;99.90;;;;;;5032098;28;20481;-56
2020/12/07 05:11:15;;;;;;;52.33;36.23;;;6.00;99.90;;;;;;5031526;28;20992;-56
2020/12/07 05:13:46;;;;;;;51.90;33.57;;;5.80;99.90;;;;;;5031534;28;20285;-55
2020/12/07 05:16:14;;;;;;;61.10;40.77;;;6.00;99.90;;;;;;5030768;28;20536;-55
2020/12/07 05:18:42;;;;;;;63.90;40.83;;;5.80;99.90;;;;;;5030480;28;20766;-54
2020/12/07 05:21:09;;;;;;;66.13;43.77;;;5.70;99.90;;;;;;5030677;28;20785;-55
2020/12/07 05:23:37;;;;;;;67.13;42.60;;;5.70;99.90;;;;;;5030028;28;20510;-56
2020/12/07 05:26:09;;;;;;;62.77;43.80;;;6.00;99.90;;;;;;5030808;28;20657;-55
2020/12/07 05:28:42;;;;;;;65.23;42.97;;;6.00;99.90;;;;;;5030343;28;20641;-56
2020/12/07 05:31:15;;;;;;;68.90;40.93;;;6.00;99.90;;;;;;5038209;28;20255;-54
2020/12/07 05:33:42;;;;;;;63.33;40.00;;;6.10;99.90;;;;;;5050316;28;20474;-54
2020/12/07 05:36:12;;;;;;;66.47;42.47;;;6.00;99.90;;;;;;5050082;28;20535;-54
2020/12/07 05:38:39;;;;;;;57.90;40.00;;;5.90;99.90;;;;;;5049689;28;20834;-55
2020/12/07 05:41:07;;;;;;;61.97;40.53;;;5.90;99.90;;;;;;5049199;28;20327;-56
2020/12/07 05:43:37;;;;;;;58.87;38.43;;;6.00;99.90;;;;;;5049426;28;20336;-56
2020/12/07 05:46:06;;;;;;;61.37;42.03;;;5.90;99.90;;;;;;5047217;28;20236;-55
2020/12/07 05:48:36;;;;;;;63.73;42.60;;;5.80;99.90;;;;;;5049709;28;20304;-54
2020/12/07 05:51:05;;;;;;;56.00;40.10;;;6.00;99.90;;;;;;5049322;28;20255;-55
2020/12/07 05:53:36;;;;;;;55.47;37.80;;;6.10;99.90;;;;;;5046260;28;20679;-56
2020/12/07 05:56:05;;;;;;;57.97;36.17;;;6.10;99.90;;;;;;5047257;28;20253;-56
2020/12/07 05:58:41;;;;;;;61.73;41.43;;;6.40;99.90;;;;;;5031689;28;20228;-55
2020/12/07 06:01:11;;;;;;;61.37;40.57;;;6.20;99.90;;;;;;5036520;28;20267;-55
2020/12/07 06:03:42;;;;;;;58.47;39.10;;;6.10;99.90;;;;;;5046787;28;20301;-54
2020/12/07 06:06:09;;;;;;;56.33;38.60;;;5.90;99.90;;;;;;5049222;28;20252;-54
2020/12/07 06:08:40;;;;;;;59.80;40.60;;;5.80;99.90;;;;;;5065036;28;20231;-55
2020/12/07 06:11:09;;;;;;;58.83;39.07;;;5.80;99.90;;;;;;5049938;28;20239;-55
2020/12/07 06:13:38;;;;;;;55.03;36.90;;;5.80;99.90;;;;;;5049935;28;20247;-54
2020/12/07 06:16:07;;;;;;;56.73;39.63;;;5.80;99.90;;;;;;5049986;28;20258;-54
2020/12/07 06:18:36;;;;;;;59.83;39.50;;;6.00;99.90;;;;;;5049653;28;20532;-55
2020/12/07 06:21:06;;;;;;;58.77;39.63;;;6.00;99.90;;;;;;5049390;28;20258;-55
2020/12/07 06:23:36;;;;;;;53.63;38.80;;;6.00;99.90;;;;;;5049463;28;20710;-54
2020/12/07 06:26:07;;;;;;;54.07;37.40;;;5.90;99.90;;;;;;5049638;28;20243;-55
2020/12/07 06:28:37;;;;;;;54.33;38.07;;;5.90;99.90;;;;;;5049663;28;20265;-55
2020/12/07 06:31:07;;;;;;;51.97;35.83;;;5.90;99.90;;;;;;5046924;28;20336;-55
2020/12/07 06:33:44;;;;;;;47.90;35.97;;;5.90;99.90;;;;;;5033080;28;20291;-56
2020/12/07 06:36:26;;;;;;;51.17;36.50;;;5.90;99.90;;;;;;5046418;28;20317;-54
2020/12/07 06:38:56;;;;;;;49.10;35.83;;;5.80;99.90;;;;;;5050021;28;20536;-56
2020/12/07 06:41:38;;;;;;;52.47;36.67;;;6.00;99.90;;;;;;5049679;28;20543;-54
2020/12/07 06:44:10;;;;;;;46.73;35.27;;;6.10;99.90;;;;;;5050142;28;20305;-54
2020/12/07 06:46:57;;;;;;;48.87;35.50;;;5.90;99.90;;;;;;5049979;28;20236;-54
2020/12/07 06:49:33;;;;;;;48.57;36.53;;;5.90;99.90;;;;;;5044992;28;20239;-54
2020/12/07 06:52:09;;;;;;;50.80;35.97;;;6.00;99.90;;;;;;5049160;28;20294;-55
2020/12/07 06:57:29;;;;;;;49.43;33.90;;;6.20;99.90;;;;;;5048060;28;20498;-56
2020/12/07 07:00:02;;;;;;;56.93;39.40;;;6.20;99.90;;;;;;5030602;28;20489;-54
2020/12/07 07:02:31;;;;;;;49.03;36.57;;;6.10;99.90;;;;;;5033922;28;20227;-54
2020/12/07 07:05:00;;;;;;;50.97;36.53;;;6.10;99.90;;;;;;5049283;28;20251;-54
2020/12/07 07:07:29;;;;;;;52.60;37.30;;;6.00;99.90;;;;;;5047517;28;20275;-54
2020/12/07 07:09:59;;;;;;;49.47;36.83;;;5.90;99.90;;;;;;5047201;28;20246;-54
2020/12/07 07:12:27;;;;;;;50.17;36.60;;;5.90;99.90;;;;;;5046945;28;20516;-55
2020/12/07 07:14:56;;;;;;;47.67;35.23;;;5.80;99.90;;;;;;5046815;28;20290;-54
2020/12/07 07:17:27;;;;;;;48.70;36.13;;;5.90;99.90;;;;;;5046813;28;20478;-54
2020/12/07 07:19:55;;;;;;;46.37;35.60;;;6.00;99.90;;;;;;5047236;28;20535;-54
2020/12/07 07:22:23;;;;;;;49.17;35.80;;;6.00;99.90;;;;;;5047422;28;20251;-56
2020/12/07 07:30:18;;;;;;;47.47;35.53;;;6.20;99.90;;;;;;5026346;28;20264;-56
2020/12/07 07:32:50;;;;;;;48.03;36.00;;;6.00;99.90;;;;;;4996875;28;20500;-55
2020/12/07 07:35:21;;;;;;;47.83;35.10;;;6.10;99.90;;;;;;5048264;28;20232;-56
2020/12/07 07:37:49;;;;;;;46.23;34.93;;;6.00;99.90;;;;;;5047560;28;20260;-54
2020/12/07 07:40:18;;;;;;;45.23;34.00;;;5.90;99.90;;;;;;5035233;28;20244;-55
2020/12/07 07:42:49;;;;;;;45.00;33.23;;;6.00;99.90;;;;;;5028429;28;20260;-54
2020/12/07 07:45:19;;;;;;;45.70;34.20;;;6.00;99.90;;;;;;5047920;28;20235;-56
2020/12/07 07:47:54;;;;;;;44.17;33.87;;;5.90;99.90;;;;;;5030141;28;20236;-55
2020/12/07 07:53:52;;;;;;;44.13;33.57;;;5.90;99.90;;;;;;5046132;28;20875;-55
2020/12/07 08:16:22;;;;;;;43.80;33.23;;;5.90;99.90;;;;;;5048604;28;20270;-54
2020/12/07 08:18:52;;;;;;;43.83;33.63;;;6.00;99.90;;;;;;5047850;28;20485;-54
2020/12/07 08:21:29;;;;;;;46.70;34.60;;;6.00;99.90;;;;;;5047982;28;20485;-54
2020/12/07 08:23:59;;;;;;;46.67;34.10;;;6.00;99.90;;;;;;5047896;28;20314;-54
2020/12/07 08:26:26;;;;;;;46.13;34.77;;;6.00;99.90;;;;;;5048623;28;20239;-54
2020/12/07 08:28:54;;;;;;;45.87;34.47;;;6.00;99.90;;;;;;5048059;28;20251;-54
2020/12/07 08:31:22;;;;;;;47.80;35.30;;;6.00;99.90;;;;;;5047646;28;20284;-54
2020/12/07 08:34:01;;;;;;;46.40;34.87;;;6.00;99.90;;;;;;5048254;28;20232;-54
2020/12/07 08:36:32;;;;;;;48.57;35.17;;;6.00;99.90;;;;;;5048297;28;20482;-54
2020/12/07 08:39:00;;;;;;;44.77;33.97;;;6.00;99.90;;;;;;5045743;28;20262;-54
2020/12/07 08:41:30;;;;;;;46.00;34.77;;;6.00;99.90;;;;;;5046007;28;20273;-54
2020/12/07 08:43:59;;;;;;;47.60;34.37;;;6.00;99.90;;;;;;5044590;28;20290;-56
2020/12/07 08:46:30;;;;;;;47.70;35.80;;;6.00;99.90;;;;;;5044373;28;20240;-55
2020/12/07 08:48:58;;;;;;;49.13;34.03;;;5.90;99.90;;;;;;5042724;28;20331;-56
2020/12/07 08:51:27;;;;;;;49.73;36.57;;;6.10;99.90;;;;;;5055642;28;21033;-55
2020/12/07 08:53:56;;;;;;;53.57;37.97;;;6.00;99.90;;;;;;5048357;28;20560;-56
2020/12/07 08:56:23;;;;;;;60.70;39.13;;;6.00;99.90;;;;;;5057003;28;21070;-55
2020/12/07 08:58:51;;;;;;;59.73;41.17;;;6.00;99.90;;;;;;5037596;28;20515;-54
2020/12/07 09:01:18;;;;;;;52.37;38.47;;;6.00;99.90;;;;;;5035733;28;20244;-54
2020/12/07 09:03:46;;;;;;;54.20;38.07;;;6.00;99.90;;;;;;5046566;28;20471;-54
2020/12/07 09:06:15;;;;;;;62.87;42.90;;;6.00;99.90;;;;;;5047347;28;20243;-54
2020/12/07 09:08:44;;;;;;;61.90;42.40;;;6.20;99.90;;;;;;5049698;28;20243;-54
2020/12/07 09:11:14;;;;;;;61.33;42.90;;;6.10;99.90;;;;;;5049956;28;20240;-54
2020/12/07 09:13:42;;;;;;;65.20;44.17;;;6.10;99.90;;;;;;5049648;28;20243;-54
2020/12/07 09:16:10;;;;;;;67.10;43.23;;;6.00;99.90;;;;;;5049510;28;20489;-54
2020/12/07 09:18:38;;;;;;;74.10;45.00;;;6.00;99.90;;;;;;5049092;28;20679;-54
2020/12/07 09:21:06;;;;;;;74.90;46.90;;;6.00;99.90;;;;;;5029165;28;20310;-54
2020/12/07 09:23:35;;;;;;;75.17;46.33;;;6.00;99.90;;;;;;5029299;28;20635;-55
2020/12/07 09:26:03;;;;;;;84.03;47.70;;;5.90;99.90;;;;;;5029287;28;20595;-55
2020/12/07 09:28:35;;;;;;;83.87;48.07;;;5.90;99.90;;;;;;5047851;28;20239;-54
2020/12/07 09:31:03;;;;;;;86.80;47.00;;;5.90;99.90;;;;;;5047149;28;20604;-56
2020/12/07 09:33:30;;;;;;;92.87;49.80;;;5.90;99.90;;;;;;5046663;28;20231;-56
2020/12/07 09:35:57;;;;;;;86.43;48.07;;;5.80;99.90;;;;;;5029167;28;20276;-56
2020/12/07 09:38:25;;;;;;;92.17;48.20;;;5.80;99.90;;;;;;5029447;28;20244;-54
2020/12/07 09:40:53;;;;;;;86.73;47.30;;;5.80;99.90;;;;;;5041970;28;20255;-55
2020/12/07 09:43:20;;;;;;;85.20;48.07;;;5.70;99.90;;;;;;5045068;28;20566;-54
2020/12/07 09:45:48;;;;;;;84.17;44.57;;;5.70;99.90;;;;;;5047729;28;20647;-54
2020/12/07 09:48:15;;;;;;;82.80;45.17;;;5.70;99.90;;;;;;5045336;28;20326;-55
2020/12/07 09:50:43;;;;;;;77.63;43.80;;;5.70;99.90;;;;;;5055688;28;20524;-54
2020/12/07 09:53:12;;;;;;;75.00;42.90;;;5.70;99.90;;;;;;5060367;28;20327;-54
2020/12/07 09:55:39;;;;;;;74.57;40.67;;;5.70;99.90;;;;;;5037689;28;20576;-54
2020/12/07 09:58:06;;;;;;;65.10;38.97;;;5.60;99.90;;;;;;5029065;28;20240;-56
2020/12/07 10:00:34;;;;;;;66.37;38.87;;;5.60;99.90;;;;;;5042575;28;20235;-55
2020/12/07 10:03:02;;;;;;;62.50;37.33;;;5.60;99.90;;;;;;5046051;28;20335;-55
2020/12/07 10:05:29;;;;;;;63.03;38.03;;;5.60;99.90;;;;;;5025799;28;20263;-54
2020/12/07 10:07:56;;;;;;;63.93;36.43;;;5.60;99.90;;;;;;5029240;28;20483;-54
2020/12/07 10:10:23;;;;;;;62.67;35.87;;;5.60;99.90;;;;;;5028852;28;20338;-54
2020/12/07 10:12:51;;;;;;;57.23;35.70;;;5.60;99.90;;;;;;5045915;28;20251;-55
2020/12/07 10:15:18;;;;;;;59.70;35.87;;;5.60;99.90;;;;;;5048799;28;20709;-54
2020/12/07 10:17:45;;;;;;;53.93;34.43;;;5.60;99.90;;;;;;5048140;28;20483;-55
2020/12/07 10:20:13;;;;;;;53.80;33.83;;;5.60;99.90;;;;;;5044716;28;21003;-54
2020/12/07 10:22:41;;;;;;;49.93;32.37;;;5.60;99.90;;;;;;5048425;28;20561;-55
2020/12/07 10:25:08;;;;;;;51.23;32.27;;;5.60;99.90;;;;;;5048602;28;20317;-55
2020/12/07 10:27:35;;;;;;;47.67;30.77;;;5.60;99.90;;;;;;5048236;28;20531;-56
2020/12/07 10:30:03;;;;;;;48.27;30.53;;;5.50;99.90;;;;;;5048478;28;20533;-54
2020/12/07 10:32:31;;;;;;;46.07;28.57;;;5.50;99.90;;;;;;5047893;28;20239;-56
2020/12/07 10:34:58;;;;;;;47.60;29.00;;;5.40;99.90;;;;;;5047249;28;20524;-54
2020/12/07 10:37:26;;;;;;;42.20;27.80;;;5.40;99.90;;;;;;5047420;28;20242;-54
2020/12/07 10:39:54;;;;;;;43.57;27.93;;;5.40;99.90;;;;;;5047917;28;20474;-55
2020/12/07 10:42:21;;;;;;;41.53;27.20;;;5.40;99.90;;;;;;5046480;28;20243;-54
2020/12/07 10:44:48;;;;;;;41.33;27.07;;;5.40;99.90;;;;;;5040406;28;20482;-55
2020/12/07 10:47:15;;;;;;;43.07;27.90;;;5.40;99.90;;;;;;5046238;28;20559;-55
2020/12/07 10:49:43;;;;;;;41.20;26.60;;;5.30;99.90;;;;;;5037065;28;20609;-54
2020/12/07 10:52:10;;;;;;;40.73;26.93;;;5.40;99.90;;;;;;5027327;28;20248;-54
2020/12/07 10:54:38;;;;;;;44.03;27.60;;;5.40;99.90;;;;;;5027047;28;20312;-56
2020/12/07 10:57:05;;;;;;;36.37;25.20;;;5.40;99.90;;;;;;5024540;28;20323;-54
2020/12/07 10:59:33;;;;;;;39.40;26.47;;;5.40;99.90;;;;;;5027493;28;20323;-56
2020/12/07 11:02:00;;;;;;;37.70;26.33;;;5.40;99.90;;;;;;5042773;28;20493;-54
2020/12/07 11:04:28;;;;;;;42.27;28.03;;;5.40;99.90;;;;;;5046558;28;20253;-54
2020/12/07 11:06:57;;;;;;;36.53;25.73;;;5.40;99.90;;;;;;5046114;28;20491;-54
2020/12/07 11:09:24;;;;;;;38.93;25.20;;;5.40;99.90;;;;;;5045463;28;20565;-55
2020/12/07 11:11:58;;;;;;;41.03;26.50;;;5.40;99.90;;;;;;5044620;28;20555;-55
2020/12/07 11:14:25;;;;;;;35.80;25.83;;;5.40;99.90;;;;;;5028220;28;20288;-54
2020/12/07 11:16:52;;;;;;;40.27;26.17;;;5.40;99.90;;;;;;5024502;28;20593;-54
2020/12/07 11:19:20;;;;;;;36.80;25.87;;;5.40;99.90;;;;;;5026239;28;20983;-54
2020/12/07 11:21:47;;;;;;;31.50;23.60;;;5.40;99.90;;;;;;5023837;28;20482;-55
2020/12/07 11:24:14;;;;;;;31.70;22.50;;;5.40;99.90;;;;;;5026147;28;20483;-55
2020/12/07 11:26:42;;;;;;;27.67;20.40;;;5.40;99.90;;;;;;5025635;28;20509;-54
2020/12/07 11:29:10;;;;;;;21.03;16.27;;;5.40;99.90;;;;;;5025078;28;20263;-55
2020/12/07 11:31:37;;;;;;;19.83;15.03;;;5.40;99.90;;;;;;5037719;28;20520;-54
2020/12/07 11:34:04;;;;;;;19.40;15.20;;;5.40;99.90;;;;;;5045942;28;20555;-55
2020/12/07 11:36:31;;;;;;;18.00;14.27;;;5.40;99.90;;;;;;5045397;28;20304;-54
2020/12/07 11:39:13;;;;;;;16.63;12.90;;;5.40;99.90;;;;;;5044484;28;20275;-55
2020/12/07 11:41:51;;;;;;;16.73;12.73;;;5.40;99.90;;;;;;5041736;28;20513;-54
2020/12/07 11:44:19;;;;;;;17.27;13.10;;;5.40;99.90;;;;;;5042887;28;20287;-55
2020/12/07 11:46:49;;;;;;;20.00;14.20;;;5.50;99.90;;;;;;5046315;28;20684;-54
2020/12/07 11:49:16;;;;;;;18.43;13.37;;;5.50;99.90;;;;;;5045767;28;20481;-54
2020/12/07 11:51:44;;;;;;;19.07;14.27;;;5.50;99.90;;;;;;5043834;28;20598;-54
2020/12/07 11:54:11;;;;;;;17.77;14.70;;;5.50;99.90;;;;;;5045842;28;20494;-54
2020/12/07 11:56:39;;;;;;;18.60;14.27;;;5.50;99.90;;;;;;5045184;28;20231;-54
2020/12/07 11:59:09;;;;;;;17.93;14.07;;;5.50;99.90;;;;;;5028199;28;20479;-54
2020/12/07 12:01:38;;;;;;;16.43;13.30;;;5.50;99.90;;;;;;5037885;28;20540;-55
2020/12/07 12:04:06;;;;;;;16.97;12.93;;;5.50;99.90;;;;;;5045458;28;20563;-54
2020/12/07 12:06:36;;;;;;;14.70;12.50;;;5.50;99.90;;;;;;5045206;28;20489;-54
2020/12/07 12:09:06;;;;;;;18.37;14.50;;;5.50;99.90;;;;;;5045426;28;20231;-55
2020/12/07 12:11:35;;;;;;;15.53;12.00;;;5.50;99.90;;;;;;5045139;28;20478;-56
2020/12/07 12:14:05;;;;;;;18.00;13.27;;;5.50;99.90;;;;;;5043303;28;20305;-56
2020/12/07 12:16:33;;;;;;;17.40;13.63;;;5.50;99.90;;;;;;5045320;28;20573;-56
2020/12/07 12:19:07;;;;;;;17.30;14.00;;;5.50;99.90;;;;;;5045134;28;20490;-54
2020/12/07 12:21:35;;;;;;;16.63;13.27;;;5.50;99.90;;;;;;5045337;28;20898;-54
2020/12/07 12:24:05;;;;;;;15.73;13.17;;;5.60;99.90;;;;;;5044983;28;20482;-55
2020/12/07 12:26:34;;;;;;;19.40;14.03;;;5.60;99.90;;;;;;5045398;28;20572;-55
2020/12/07 12:29:02;;;;;;;18.53;13.07;;;5.50;99.90;;;;;;5045039;28;20534;-54
2020/12/07 12:31:29;;;;;;;18.30;13.10;;;5.50;99.90;;;;;;5044703;28;20491;-54
2020/12/07 12:33:56;;;;;;;18.07;13.87;;;5.50;99.90;;;;;;5045639;28;21377;-54
2020/12/07 12:36:27;;;;;;;19.20;14.03;;;5.50;99.90;;;;;;5044887;28;20305;-54
2020/12/07 12:38:55;;;;;;;19.00;14.50;;;5.50;99.90;;;;;;5040539;28;20490;-54
2020/12/07 12:41:24;;;;;;;19.73;14.27;;;5.50;99.90;;;;;;5031736;28;20483;-54
2020/12/07 12:43:51;;;;;;;18.83;14.30;;;5.50;99.90;;;;;;5032894;28;21250;-54
2020/12/07 12:46:19;;;;;;;20.53;15.00;;;5.50;99.90;;;;;;5029322;28;20593;-54
2020/12/07 12:48:47;;;;;;;18.53;14.10;;;5.50;99.90;;;;;;5029544;28;20260;-54
2020/12/07 12:51:14;;;;;;;19.93;14.70;;;5.50;99.90;;;;;;5029307;28;20503;-55
2020/12/07 12:53:43;;;;;;;22.20;14.60;;;5.50;99.90;;;;;;5028307;28;20493;-55
2020/12/07 12:56:12;;;;;;;19.67;14.43;;;5.40;99.90;;;;;;5028700;28;20277;-54
2020/12/07 12:58:39;;;;;;;21.27;15.20;;;5.50;99.90;;;;;;5028768;28;20239;-54
2020/12/07 13:01:08;;;;;;;20.63;14.63;;;5.40;99.90;;;;;;5033763;28;20818;-54
2020/12/07 13:03:35;;;;;;;20.50;14.70;;;5.40;99.90;;;;;;5049265;28;20242;-54
2020/12/07 13:06:03;;;;;;;22.00;15.20;;;5.40;99.90;;;;;;5049368;28;21324;-55
2020/12/07 13:08:34;;;;;;;21.80;15.43;;;5.40;99.90;;;;;;5049520;28;20241;-54
2020/12/07 13:11:02;;;;;;;22.30;15.57;;;5.40;99.90;;;;;;5049000;28;20488;-54
2020/12/07 13:13:36;;;;;;;23.20;15.80;;;5.40;99.90;;;;;;5049394;28;20259;-54
2020/12/07 13:16:08;;;;;;;24.00;16.77;;;5.40;99.90;;;;;;5049877;28;20244;-54